createdAt,value
2023-07-03T00:01:47.095Z,16.92
2023-07-03T00:04:19.703Z,13.32
2023-07-03T00:06:52.166Z,13.27
2023-07-03T00:09:24.499Z,16.45
2023-07-03T00:11:56.864Z,14.50
2023-07-03T00:14:29.228Z,14.35
2023-07-03T00:17:02.741Z,14.55
2023-07-03T00:22:33.337Z,13.35
2023-07-03T00:25:07.286Z,14.85
2023-07-03T00:27:39.672Z,12.63
2023-07-03T00:30:13.722Z,16.15
2023-07-03T00:32:46.050Z,16.17
2023-07-03T00:35:18.421Z,16.27
2023-07-03T00:37:51.716Z,13.80
2023-07-03T00:47:01.510Z,14.05
2023-07-03T00:49:34.015Z,16.88
2023-07-03T00:52:08.245Z,16.60
2023-07-03T00:54:40.588Z,15.55
2023-07-03T00:57:14.413Z,15.23
2023-07-03T00:59:46.803Z,14.20
2023-07-03T01:02:26.198Z,17.25
2023-07-03T01:07:47.680Z,17.52
2023-07-03T01:10:22.630Z,14.93
2023-07-03T01:12:59.620Z,17.42
2023-07-03T01:15:35.032Z,15.10
2023-07-03T01:18:08.362Z,17.25
2023-07-03T01:20:49.042Z,18.55
2023-07-03T01:23:27.378Z,16.60
2023-07-03T01:47:59.955Z,17.40
2023-07-03T01:58:47.116Z,18.42
2023-07-03T02:01:25.865Z,17.15
2023-07-03T02:04:04.978Z,18.67
2023-07-03T02:06:41.778Z,19.70
2023-07-03T02:09:14.734Z,19.15
2023-07-03T02:11:53.547Z,19.33
2023-07-03T02:14:27.486Z,19.27
2023-07-03T02:24:52.245Z,18.73
2023-07-03T02:27:24.725Z,23.70
2023-07-03T02:29:57.081Z,21.42
2023-07-03T02:32:33.909Z,22.42
2023-07-03T02:35:08.178Z,19.27
2023-07-03T02:37:40.681Z,18.58
2023-07-03T02:40:14.268Z,22.25
2023-07-03T02:49:28.060Z,20.90
2023-07-03T02:52:01.977Z,20.88
2023-07-03T02:54:37.596Z,19.48
2023-07-03T02:57:11.466Z,20.40
2023-07-03T02:59:43.856Z,18.73
2023-07-03T03:02:16.739Z,20.23
2023-07-03T03:04:50.069Z,19.15
2023-07-03T03:11:20.900Z,20.40
2023-07-03T03:13:56.663Z,20.85
2023-07-03T03:16:29.160Z,19.73
2023-07-03T03:19:02.275Z,23.42
2023-07-03T03:21:35.244Z,25.33
2023-07-03T03:24:07.855Z,18.70
2023-07-03T03:29:29.140Z,21.33
2023-07-03T03:32:02.105Z,21.45
2023-07-03T03:34:35.332Z,19.58
2023-07-03T03:37:07.874Z,19.02
2023-07-03T03:39:40.247Z,19.48
2023-07-03T03:42:13.756Z,18.38
2023-07-03T03:44:46.948Z,19.65
2023-07-03T03:50:02.387Z,17.50
2023-07-03T03:52:38.062Z,18.48
2023-07-03T03:55:10.536Z,20.35
2023-07-03T03:57:42.832Z,16.70
2023-07-03T04:00:20.500Z,20.02
2023-07-03T04:02:53.300Z,20.58
2023-07-03T04:05:26.619Z,17.00
2023-07-03T04:11:49.544Z,21.73
2023-07-03T04:14:22.048Z,20.38
2023-07-03T04:16:58.606Z,18.80
2023-07-03T04:19:31.062Z,20.13
2023-07-03T04:22:03.511Z,16.88
2023-07-03T04:24:35.826Z,18.55
2023-07-03T04:27:08.927Z,23.08
2023-07-03T04:38:50.974Z,16.10
2023-07-03T04:41:24.315Z,15.23
2023-07-03T04:44:01.973Z,17.30
2023-07-03T04:46:35.368Z,19.33
2023-07-03T04:49:08.805Z,14.57
2023-07-03T04:51:42.103Z,17.70
2023-07-03T04:54:15.325Z,15.05
2023-07-03T05:02:08.360Z,13.23
2023-07-03T05:04:40.843Z,15.70
2023-07-03T05:07:13.387Z,15.10
2023-07-03T05:09:46.269Z,15.88
2023-07-03T05:12:18.577Z,16.80
2023-07-03T05:14:50.896Z,19.38
2023-07-03T05:17:24.037Z,14.70
2023-07-03T05:22:41.354Z,15.70
2023-07-03T05:25:15.327Z,14.10
2023-07-03T05:27:48.209Z,21.23
2023-07-03T05:30:20.694Z,17.30
2023-07-03T05:32:53.057Z,15.20
2023-07-03T05:35:26.166Z,13.63
2023-07-03T05:42:11.181Z,14.45
2023-07-03T05:44:44.221Z,17.70
2023-07-03T05:47:17.466Z,16.27
2023-07-03T05:49:49.934Z,14.85
2023-07-03T05:52:22.357Z,15.02
2023-07-03T05:54:54.717Z,13.85
2023-07-03T05:57:27.672Z,13.05
2023-07-03T06:03:59.084Z,14.45
2023-07-03T06:06:32.847Z,17.70
2023-07-03T06:09:05.140Z,14.95
2023-07-03T06:11:37.510Z,13.13
2023-07-03T06:14:15.963Z,12.52
2023-07-03T06:16:50.146Z,11.30
2023-07-03T06:19:23.256Z,12.98
2023-07-03T06:25:30.829Z,12.35
2023-07-03T06:28:03.550Z,12.25
2023-07-03T06:30:35.942Z,14.05
2023-07-03T06:33:08.340Z,12.13
2023-07-03T06:35:40.746Z,12.18
2023-07-03T06:38:13.121Z,12.77
2023-07-03T06:40:55.749Z,13.00
2023-07-03T06:46:17.839Z,12.82
2023-07-03T06:48:50.498Z,10.68
2023-07-03T06:51:23.011Z,11.85
2023-07-03T06:53:55.338Z,11.02
2023-07-03T06:56:29.145Z,13.10
2023-07-03T06:59:01.800Z,12.02
2023-07-03T07:01:34.820Z,13.05
2023-07-03T07:06:56.828Z,10.85
2023-07-03T07:09:29.272Z,12.63
2023-07-03T07:12:02.077Z,13.82
2023-07-03T07:14:34.400Z,9.50
2023-07-03T07:17:06.826Z,11.95
2023-07-03T07:19:39.308Z,9.20
2023-07-03T07:22:12.292Z,11.05
2023-07-03T07:31:22.369Z,9.18
2023-07-03T07:33:55.278Z,10.90
2023-07-03T07:36:27.814Z,10.73
2023-07-03T07:39:02.607Z,12.45
2023-07-03T07:41:36.073Z,10.52
2023-07-03T07:44:08.401Z,8.48
2023-07-03T07:49:23.987Z,8.18
2023-07-03T07:51:57.578Z,8.55
2023-07-03T07:54:29.867Z,9.25
2023-07-03T07:57:02.244Z,7.88
2023-07-03T07:59:34.902Z,9.48
2023-07-03T08:02:08.036Z,7.38
2023-07-03T08:04:41.197Z,7.47
2023-07-03T08:14:26.980Z,6.30
2023-07-03T08:16:59.491Z,8.27
2023-07-03T08:19:31.833Z,7.18
2023-07-03T08:22:04.607Z,8.52
2023-07-03T08:24:36.941Z,11.13
2023-07-03T08:27:09.304Z,9.18
2023-07-03T08:29:42.317Z,9.13
2023-07-03T08:37:39.916Z,7.55
2023-07-03T08:40:17.648Z,8.45
2023-07-03T08:42:53.807Z,7.85
2023-07-03T08:45:34.233Z,7.50
2023-07-03T08:48:10.417Z,9.68
2023-07-03T08:50:46.164Z,6.85
2023-07-03T08:56:08.400Z,6.75
2023-07-03T08:58:41.159Z,7.07
2023-07-03T09:01:21.480Z,8.73
2023-07-03T09:04:08.011Z,6.97
2023-07-03T09:06:47.615Z,7.07
2023-07-03T09:09:24.190Z,7.32
2023-07-03T09:12:03.380Z,6.68
2023-07-03T09:22:33.529Z,7.63
2023-07-03T09:25:11.500Z,7.00
2023-07-03T09:27:46.016Z,7.05
2023-07-03T09:30:19.750Z,14.90
2023-07-03T09:32:52.115Z,8.88
2023-07-03T09:35:26.791Z,7.20
2023-07-03T09:38:01.910Z,8.43
2023-07-03T09:49:29.075Z,7.47
2023-07-03T09:52:02.090Z,7.47
2023-07-03T09:54:39.890Z,7.75
2023-07-03T09:57:25.801Z,6.78
2023-07-03T10:00:11.110Z,8.30
2023-07-03T10:15:56.169Z,7.05
2023-07-03T10:18:33.056Z,7.45
2023-07-03T10:21:09.530Z,7.47
2023-07-03T10:23:43.484Z,8.13
2023-07-03T10:26:21.237Z,12.77
2023-07-03T10:28:59.171Z,6.22
2023-07-03T10:31:38.160Z,6.63
2023-07-03T10:42:08.837Z,7.03
2023-07-03T10:44:43.068Z,7.68
2023-07-03T10:47:24.026Z,7.93
2023-07-03T10:49:57.680Z,7.18
2023-07-03T10:52:36.802Z,6.40
2023-07-03T10:55:17.486Z,8.07
2023-07-03T11:04:39.030Z,6.40
2023-07-03T11:07:20.530Z,6.43
2023-07-03T11:10:01.874Z,5.47
2023-07-03T11:12:42.166Z,6.15
2023-07-03T11:15:27.800Z,7.07
2023-07-03T11:24:18.801Z,5.43
2023-07-03T11:29:35.908Z,6.15
2023-07-03T11:32:09.674Z,6.40
2023-07-03T11:40:35.619Z,5.80
2023-07-03T11:48:56.140Z,6.65
2023-07-03T11:51:32.716Z,5.97
2023-07-03T11:54:22.750Z,8.00
2023-07-03T11:56:57.280Z,8.57
2023-07-03T11:59:36.134Z,6.95
2023-07-03T12:02:45.189Z,5.40
2023-07-03T12:11:07.591Z,7.70
2023-07-03T12:14:01.619Z,4.90
2023-07-03T12:16:35.631Z,5.35
2023-07-03T12:19:10.752Z,5.55
2023-07-03T12:21:46.817Z,5.18
2023-07-03T12:24:29.909Z,5.60
2023-07-03T12:27:05.642Z,6.57
2023-07-03T12:35:11.265Z,5.45
2023-07-03T12:37:45.886Z,5.05
2023-07-03T12:40:19.805Z,5.03
2023-07-03T12:42:54.728Z,4.93
2023-07-03T12:45:28.907Z,5.38
2023-07-03T12:48:02.582Z,5.53
2023-07-03T12:50:46.029Z,4.85
2023-07-03T12:56:10.401Z,6.45
2023-07-03T12:58:42.875Z,4.65
2023-07-03T13:01:15.991Z,5.00
2023-07-03T13:03:48.576Z,4.57
2023-07-03T13:06:23.976Z,7.40
2023-07-03T13:08:58.460Z,4.85
2023-07-03T13:11:34.295Z,4.70
2023-07-03T13:19:31.441Z,5.20
2023-07-03T13:22:08.005Z,4.47
2023-07-03T13:24:43.886Z,4.60
2023-07-03T13:27:20.979Z,4.57
2023-07-03T13:29:58.265Z,4.78
2023-07-03T13:32:30.639Z,4.70
2023-07-03T13:35:06.233Z,5.05
2023-07-03T13:37:39.058Z,4.18
2023-07-03T13:45:32.718Z,4.15
2023-07-03T13:48:06.465Z,3.75
2023-07-03T13:50:38.817Z,4.15
2023-07-03T13:53:11.194Z,3.92
2023-07-03T13:55:43.519Z,8.15
2023-07-03T13:58:16.581Z,3.95
2023-07-03T14:00:49.633Z,5.50
2023-07-03T14:06:13.242Z,4.10
2023-07-03T14:08:45.730Z,4.40
2023-07-03T14:11:18.550Z,4.80
2023-07-03T14:13:51.065Z,5.65
2023-07-03T14:16:23.679Z,5.13
2023-07-03T14:18:56.141Z,4.93
2023-07-03T14:21:29.398Z,4.40
2023-07-03T14:26:51.941Z,4.03
2023-07-03T14:29:24.812Z,6.50
2023-07-03T14:31:58.204Z,4.35
2023-07-03T14:34:30.720Z,4.10
2023-07-03T14:37:04.652Z,4.63
2023-07-03T14:39:37.003Z,4.68
2023-07-03T14:42:10.019Z,5.68
2023-07-03T14:51:33.757Z,4.88
2023-07-03T14:54:06.264Z,5.05
2023-07-03T14:56:38.671Z,5.75
2023-07-03T14:59:10.995Z,4.65
2023-07-03T15:01:44.455Z,4.95
2023-07-03T15:04:17.094Z,3.90
2023-07-03T15:06:50.241Z,4.47
2023-07-03T15:13:30.056Z,4.47
2023-07-03T15:16:02.653Z,4.70
2023-07-03T15:18:35.043Z,6.30
2023-07-03T15:21:07.327Z,3.53
2023-07-03T15:23:39.620Z,4.45
2023-07-03T15:26:11.998Z,3.75
2023-07-03T15:28:44.965Z,4.43
2023-07-03T15:34:55.367Z,8.23
2023-07-03T15:37:27.810Z,3.53
2023-07-03T15:40:00.222Z,4.50
2023-07-03T15:42:33.423Z,3.13
2023-07-03T15:45:07.124Z,3.80
2023-07-03T15:47:39.583Z,3.70
2023-07-03T15:50:12.704Z,2.95
2023-07-03T15:56:36.786Z,4.10
2023-07-03T15:59:10.138Z,5.15
2023-07-03T16:01:43.099Z,2.75
2023-07-03T16:04:15.477Z,3.67
2023-07-03T16:06:47.936Z,3.55
2023-07-03T16:09:20.246Z,4.05
2023-07-03T16:12:00.263Z,3.70
2023-07-03T16:18:07.012Z,3.65
2023-07-03T16:20:39.595Z,2.70
2023-07-03T16:23:11.961Z,3.40
2023-07-03T16:25:49.849Z,3.08
2023-07-03T16:28:22.472Z,3.25
2023-07-03T16:30:59.946Z,3.28
2023-07-03T16:33:35.985Z,3.85
2023-07-03T16:39:24.009Z,3.78
2023-07-03T16:41:56.518Z,3.72
2023-07-03T16:44:28.853Z,3.80
2023-07-03T16:47:01.435Z,3.58
2023-07-03T16:49:33.804Z,3.13
2023-07-03T16:52:06.675Z,5.03
2023-07-03T16:54:39.753Z,3.00
2023-07-03T17:00:01.681Z,5.70
2023-07-03T17:02:34.827Z,2.95
2023-07-03T17:05:07.588Z,3.90
2023-07-03T17:07:41.377Z,3.60
2023-07-03T17:10:13.721Z,4.97
2023-07-03T17:12:46.198Z,3.05
2023-07-03T17:15:19.164Z,3.95
2023-07-03T17:17:51.541Z,2.80
2023-07-03T17:28:46.832Z,4.28
2023-07-03T17:31:24.190Z,11.55
2023-07-03T17:33:57.000Z,9.05
2023-07-03T17:36:29.455Z,7.78
2023-07-03T17:39:03.559Z,12.27
2023-07-03T17:41:39.106Z,8.20
2023-07-03T17:44:15.301Z,21.27
2023-07-03T17:54:39.771Z,5.68
2023-07-03T17:57:12.312Z,4.10
2023-07-03T17:59:44.999Z,4.03
2023-07-03T18:02:17.375Z,7.25
2023-07-03T18:04:49.746Z,5.40
2023-07-03T18:07:22.227Z,4.38
2023-07-03T18:09:55.299Z,3.88
2023-07-03T18:19:05.666Z,7.40
2023-07-03T18:21:38.449Z,3.17
2023-07-03T18:24:11.086Z,5.00
2023-07-03T18:26:43.395Z,6.38
2023-07-03T18:29:15.755Z,6.65
2023-07-03T18:31:48.119Z,5.28
2023-07-03T18:34:21.599Z,5.57
2023-07-03T18:42:07.932Z,4.65
2023-07-03T18:44:40.398Z,5.47
2023-07-03T18:47:12.999Z,4.35
2023-07-03T18:49:45.369Z,4.72
2023-07-03T18:52:17.746Z,3.58
2023-07-03T18:54:50.623Z,5.15
2023-07-03T18:57:23.570Z,4.25
2023-07-03T19:02:45.413Z,4.40
2023-07-03T19:05:17.917Z,3.95
2023-07-03T19:07:50.193Z,4.85
2023-07-03T19:10:22.627Z,3.33
2023-07-03T19:12:54.926Z,3.65
2023-07-03T19:15:27.277Z,3.42
2023-07-03T19:18:00.343Z,4.55
2023-07-03T19:27:02.909Z,6.72
2023-07-03T19:29:35.792Z,4.15
2023-07-03T19:32:08.708Z,3.67
2023-07-03T19:34:44.201Z,4.78
2023-07-03T19:37:16.516Z,4.55
2023-07-03T19:39:49.301Z,3.63
2023-07-03T19:42:22.377Z,4.20
2023-07-03T19:48:50.528Z,3.85
2023-07-03T19:51:23.229Z,4.00
2023-07-03T19:53:55.583Z,4.57
2023-07-03T19:56:28.186Z,3.65
2023-07-03T19:59:00.521Z,4.60
2023-07-03T20:01:32.968Z,4.40
2023-07-03T20:04:06.859Z,3.92
2023-07-03T20:10:22.304Z,4.15
2023-07-03T20:12:54.732Z,4.65
2023-07-03T20:15:27.043Z,4.20
2023-07-03T20:17:59.568Z,4.95
2023-07-03T20:20:31.923Z,3.90
2023-07-03T20:23:04.233Z,3.13
2023-07-03T20:25:37.238Z,5.35
2023-07-03T20:30:52.852Z,4.82
2023-07-03T20:33:25.602Z,9.73
2023-07-03T20:35:58.729Z,4.95
2023-07-03T20:38:31.529Z,4.55
2023-07-03T20:41:06.979Z,5.82
2023-07-03T20:43:41.204Z,3.75
2023-07-03T20:49:09.893Z,5.15
2023-07-03T20:51:42.440Z,4.10
2023-07-03T20:54:33.173Z,4.28
2023-07-03T20:57:05.953Z,3.78
2023-07-03T20:59:38.293Z,3.63
2023-07-03T21:02:10.727Z,5.53
2023-07-03T21:04:43.701Z,4.28
2023-07-03T21:12:25.711Z,3.75
2023-07-03T21:14:58.310Z,4.70
2023-07-03T21:17:30.682Z,5.05
2023-07-03T21:20:04.180Z,3.83
2023-07-03T21:22:36.534Z,4.05
2023-07-03T21:25:09.468Z,5.18
2023-07-03T21:27:43.776Z,4.68
2023-07-03T21:37:02.973Z,3.33
2023-07-03T21:39:35.443Z,3.25
2023-07-03T21:42:07.761Z,3.92
2023-07-03T21:44:40.075Z,3.30
2023-07-03T21:47:13.500Z,5.68
2023-07-03T21:49:48.709Z,4.80
2023-07-03T21:52:21.800Z,4.82
2023-07-03T22:02:34.621Z,4.05
2023-07-03T22:05:08.730Z,3.97
2023-07-03T22:07:41.112Z,3.38
2023-07-03T22:10:13.456Z,4.75
2023-07-03T22:12:45.779Z,4.60
2023-07-03T22:15:18.202Z,4.30
2023-07-03T22:17:52.320Z,3.70
2023-07-03T22:24:02.666Z,3.75
2023-07-03T22:26:35.464Z,3.55
2023-07-03T22:29:07.770Z,3.85
2023-07-03T22:31:40.135Z,2.92
2023-07-03T22:34:13.570Z,4.28
2023-07-03T22:36:46.131Z,4.05
2023-07-03T22:39:19.087Z,6.68
2023-07-03T22:49:54.192Z,4.78
2023-07-03T22:52:26.886Z,5.38
2023-07-03T22:55:00.493Z,3.97
2023-07-03T22:57:32.924Z,4.70
2023-07-03T23:00:11.382Z,5.18
2023-07-03T23:03:02.443Z,3.38
2023-07-03T23:05:41.787Z,5.03
2023-07-03T23:16:11.900Z,5.18
2023-07-03T23:18:44.974Z,5.60
2023-07-03T23:21:17.368Z,4.75
2023-07-03T23:23:49.696Z,4.95
2023-07-03T23:26:24.913Z,3.90
2023-07-03T23:28:57.236Z,5.07
2023-07-03T23:31:30.422Z,4.38
2023-07-03T23:36:52.591Z,6.50
2023-07-03T23:39:26.698Z,4.85
2023-07-03T23:41:58.999Z,5.10
2023-07-03T23:44:31.298Z,3.67
2023-07-03T23:47:04.936Z,4.72
2023-07-03T23:49:37.759Z,5.13
2023-07-03T23:52:12.984Z,6.47
2023-07-03T23:57:59.220Z,4.45
